createdAt,value
2017-10-23T00:01:03.483Z,68.60
2017-10-23T00:03:31.073Z,68.60
2017-10-23T00:05:59.395Z,68.90
2017-10-23T00:08:26.972Z,68.90
2017-10-23T00:10:54.533Z,68.70
2017-10-23T00:13:22.135Z,68.70
2017-10-23T00:15:50.457Z,68.90
2017-10-23T00:18:18.039Z,68.90
2017-10-23T00:20:45.634Z,68.70
2017-10-23T00:23:13.949Z,68.90
2017-10-23T00:25:41.521Z,68.90
2017-10-23T00:28:09.104Z,68.80
2017-10-23T00:30:36.690Z,68.80
2017-10-23T00:33:05.008Z,68.70
2017-10-23T00:35:32.593Z,68.70
2017-10-23T00:38:00.141Z,68.80
2017-10-23T00:40:27.684Z,68.90
2017-10-23T00:42:55.262Z,68.90
2017-10-23T00:45:22.818Z,68.80
2017-10-23T00:47:50.399Z,68.90
2017-10-23T00:50:17.948Z,69.00
2017-10-23T00:52:45.512Z,68.80
2017-10-23T00:55:13.130Z,68.80
2017-10-23T00:57:40.820Z,68.80
2017-10-23T01:00:08.402Z,68.70
2017-10-23T01:02:35.997Z,68.80
2017-10-23T01:05:04.337Z,68.60
2017-10-23T01:07:31.899Z,69.20
2017-10-23T01:09:59.494Z,68.60
2017-10-23T01:12:27.843Z,68.80
2017-10-23T01:14:55.464Z,68.70
2017-10-23T01:17:23.017Z,69.00
2017-10-23T01:19:50.595Z,68.80
2017-10-23T01:22:20.353Z,68.60
2017-10-23T01:24:48.688Z,68.80
2017-10-23T01:27:16.255Z,68.80
2017-10-23T01:29:43.844Z,68.60
2017-10-23T01:32:11.459Z,68.50
2017-10-23T01:34:39.036Z,69.50
2017-10-23T01:37:06.638Z,68.70
2017-10-23T01:39:35.059Z,68.80
2017-10-23T01:42:02.644Z,68.80
2017-10-23T01:44:30.229Z,68.70
2017-10-23T01:46:57.845Z,68.70
2017-10-23T01:49:25.400Z,68.50
2017-10-23T01:51:52.967Z,68.50
2017-10-23T01:54:20.552Z,68.70
2017-10-23T01:56:48.104Z,68.60
2017-10-23T01:59:15.704Z,68.90
2017-10-23T02:01:44.053Z,68.80
2017-10-23T02:04:11.636Z,68.80
2017-10-23T02:06:39.934Z,68.40
2017-10-23T02:09:07.515Z,68.30
2017-10-23T02:11:35.123Z,68.10
2017-10-23T02:14:02.673Z,68.20
2017-10-23T02:16:30.258Z,68.10
2017-10-23T02:18:58.563Z,69.00
2017-10-23T02:21:26.137Z,69.00
2017-10-23T02:23:53.711Z,68.70
2017-10-23T02:26:21.269Z,68.70
2017-10-23T02:28:48.870Z,69.00
2017-10-23T02:31:17.181Z,69.00
2017-10-23T02:33:44.730Z,69.00
2017-10-23T02:36:12.307Z,69.00
2017-10-23T02:38:39.871Z,68.90
2017-10-23T02:41:07.422Z,69.00
2017-10-23T02:43:35.016Z,69.40
2017-10-23T02:46:02.560Z,68.80
2017-10-23T02:48:30.125Z,68.90
2017-10-23T02:50:57.685Z,68.70
2017-10-23T02:53:25.234Z,68.60
2017-10-23T02:55:52.818Z,68.50
2017-10-23T02:58:20.355Z,68.70
2017-10-23T03:00:47.963Z,68.60
2017-10-23T03:03:16.269Z,68.70
2017-10-23T03:05:43.817Z,68.70
2017-10-23T03:08:11.430Z,68.60
2017-10-23T03:10:39.037Z,68.60
2017-10-23T03:13:06.661Z,68.50
2017-10-23T03:15:34.243Z,68.60
2017-10-23T03:18:02.583Z,68.60
2017-10-23T03:20:30.222Z,68.60
2017-10-23T03:22:57.794Z,68.50
2017-10-23T03:25:25.417Z,68.40
2017-10-23T03:27:53.014Z,68.30
2017-10-23T03:30:20.599Z,68.10
2017-10-23T03:32:48.223Z,68.10
2017-10-23T03:35:15.847Z,68.30
2017-10-23T03:37:44.261Z,68.10
2017-10-23T03:40:11.892Z,68.10
2017-10-23T03:42:39.469Z,68.00
2017-10-23T03:45:07.063Z,68.70
2017-10-23T03:47:34.649Z,68.10
2017-10-23T03:50:03.028Z,67.90
2017-10-23T03:52:31.408Z,67.60
2017-10-23T03:54:59.003Z,67.60
2017-10-23T03:57:26.594Z,67.60
2017-10-23T03:59:54.171Z,67.80
2017-10-23T04:02:21.755Z,67.60
2017-10-23T04:04:50.170Z,67.70
2017-10-23T04:07:17.766Z,67.70
2017-10-23T04:09:45.348Z,67.80
2017-10-23T04:12:13.755Z,67.80
2017-10-23T04:14:41.369Z,67.70
2017-10-23T04:17:09.008Z,67.50
2017-10-23T04:19:36.603Z,67.60
2017-10-23T04:22:04.199Z,67.80
2017-10-23T04:24:31.818Z,67.90
2017-10-23T04:26:59.401Z,67.70
2017-10-23T04:29:27.803Z,67.50
2017-10-23T04:31:55.385Z,67.40
2017-10-23T04:34:22.988Z,67.40
2017-10-23T04:36:50.573Z,67.50
2017-10-23T04:39:18.913Z,67.70
2017-10-23T04:41:46.518Z,67.70
2017-10-23T04:44:14.117Z,67.70
2017-10-23T04:46:41.696Z,67.80
2017-10-23T04:49:09.285Z,67.70
2017-10-23T04:51:37.623Z,68.00
2017-10-23T04:54:05.213Z,68.00
2017-10-23T04:56:33.602Z,68.30
2017-10-23T04:59:01.948Z,68.50
2017-10-23T05:01:29.519Z,68.50
2017-10-23T05:03:57.131Z,68.60
2017-10-23T05:06:24.759Z,68.50
2017-10-23T05:08:53.285Z,68.70
2017-10-23T05:11:20.857Z,68.50
2017-10-23T05:13:48.432Z,68.70
2017-10-23T05:16:16.045Z,68.70
2017-10-23T05:18:43.623Z,68.70
2017-10-23T05:21:11.223Z,68.80
2017-10-23T05:23:38.849Z,68.90
2017-10-23T05:26:06.436Z,69.00
2017-10-23T05:28:34.055Z,68.90
2017-10-23T05:31:01.624Z,69.10
2017-10-23T05:33:29.219Z,69.40
2017-10-23T05:35:56.828Z,69.60
2017-10-23T05:38:24.434Z,69.60
2017-10-23T05:40:52.050Z,69.80
2017-10-23T05:43:19.675Z,69.90
2017-10-23T05:45:47.249Z,70.00
2017-10-23T05:48:15.591Z,70.10
2017-10-23T05:50:43.185Z,70.00
2017-10-23T05:53:11.536Z,70.40
2017-10-23T05:55:39.115Z,70.40
2017-10-23T05:58:07.478Z,70.50
2017-10-23T06:00:35.101Z,70.50
2017-10-23T06:03:02.679Z,70.50
2017-10-23T06:05:30.293Z,70.40
2017-10-23T06:07:57.880Z,70.40
2017-10-23T06:10:25.445Z,70.60
2017-10-23T06:12:53.076Z,70.70
2017-10-23T06:15:20.719Z,70.80
2017-10-23T06:17:49.092Z,71.50
2017-10-23T06:20:17.497Z,71.60
2017-10-23T06:22:45.084Z,71.60
2017-10-23T06:25:12.712Z,71.90
2017-10-23T06:27:40.314Z,72.80
2017-10-23T06:30:08.676Z,72.80
2017-10-23T06:32:36.303Z,72.80
2017-10-23T06:35:04.659Z,73.00
2017-10-23T06:37:32.254Z,73.00
2017-10-23T06:40:00.666Z,72.90
2017-10-23T06:42:28.253Z,72.90
2017-10-23T06:44:55.830Z,72.90
2017-10-23T06:47:23.446Z,73.20
2017-10-23T06:49:51.051Z,73.30
2017-10-23T06:52:18.665Z,73.20
2017-10-23T06:54:46.253Z,73.30
2017-10-23T06:57:13.960Z,73.40
2017-10-23T06:59:41.600Z,73.50
2017-10-23T07:02:09.185Z,73.40
2017-10-23T07:04:36.803Z,73.60
2017-10-23T07:07:04.409Z,73.30
2017-10-23T07:09:32.017Z,73.50
2017-10-23T07:11:59.785Z,73.60
2017-10-23T07:14:27.379Z,73.80
2017-10-23T07:16:55.728Z,73.70
2017-10-23T07:19:23.352Z,73.60
2017-10-23T07:21:50.960Z,73.70
2017-10-23T07:24:19.330Z,73.80
2017-10-23T07:26:46.904Z,73.80
2017-10-23T07:29:15.236Z,73.80
2017-10-23T07:31:42.809Z,73.80
2017-10-23T07:34:10.372Z,73.80
2017-10-23T07:36:37.951Z,74.00
2017-10-23T07:39:05.568Z,73.30
2017-10-23T07:41:33.191Z,73.30
2017-10-23T07:44:01.543Z,73.10
2017-10-23T07:46:29.095Z,73.10
2017-10-23T07:48:57.473Z,73.80
2017-10-23T07:51:25.059Z,73.70
2017-10-23T07:53:53.374Z,72.90
2017-10-23T07:56:20.959Z,72.90
2017-10-23T07:58:48.526Z,73.20
2017-10-23T08:01:16.389Z,73.10
2017-10-23T08:03:43.953Z,73.20
2017-10-23T08:06:11.537Z,73.20
2017-10-23T08:08:39.107Z,73.70
2017-10-23T08:11:07.460Z,74.00
2017-10-23T08:13:35.015Z,74.00
2017-10-23T08:16:02.622Z,74.20
2017-10-23T08:18:30.933Z,74.20
2017-10-23T08:20:58.488Z,74.20
2017-10-23T08:23:26.065Z,74.20
2017-10-23T08:25:53.628Z,74.10
2017-10-23T08:28:21.196Z,74.00
2017-10-23T08:30:48.745Z,74.20
2017-10-23T08:33:16.301Z,74.40
2017-10-23T08:35:43.881Z,73.90
2017-10-23T08:38:11.442Z,73.90
2017-10-23T08:40:39.002Z,73.80
2017-10-23T08:43:08.072Z,74.30
2017-10-23T08:45:35.638Z,74.30
2017-10-23T08:48:03.229Z,74.60
2017-10-23T08:50:31.605Z,73.80
2017-10-23T08:53:00.857Z,74.40
2017-10-23T08:55:28.461Z,74.40
2017-10-23T08:57:58.734Z,73.90
2017-10-23T09:00:26.630Z,74.00
2017-10-23T09:02:54.240Z,73.60
2017-10-23T09:05:21.799Z,73.80
2017-10-23T09:07:49.407Z,74.30
2017-10-23T09:10:16.982Z,75.00
2017-10-23T09:12:44.612Z,74.80
2017-10-23T09:15:12.194Z,74.80
2017-10-23T09:17:39.788Z,75.40
2017-10-23T09:20:08.117Z,75.90
2017-10-23T09:22:35.710Z,75.90
2017-10-23T09:25:03.292Z,75.60
2017-10-23T09:27:31.610Z,75.30
2017-10-23T09:29:59.215Z,75.30
2017-10-23T09:32:27.553Z,75.30
2017-10-23T09:34:55.153Z,75.30
2017-10-23T09:37:23.487Z,74.40
2017-10-23T09:39:51.035Z,74.40
2017-10-23T09:42:18.601Z,74.60
2017-10-23T09:44:46.149Z,74.70
2017-10-23T09:47:13.739Z,74.80
2017-10-23T09:49:41.300Z,74.20
2017-10-23T09:52:08.860Z,74.40
2017-10-23T09:54:37.221Z,74.40
2017-10-23T09:57:04.752Z,73.80
2017-10-23T09:59:32.307Z,73.70
2017-10-23T10:01:59.898Z,73.40
2017-10-23T10:04:27.443Z,73.70
2017-10-23T10:06:55.004Z,74.00
2017-10-23T10:09:22.572Z,73.50
2017-10-23T10:11:50.123Z,73.10
2017-10-23T10:14:17.677Z,73.40
2017-10-23T10:16:45.246Z,73.60
2017-10-23T10:19:12.789Z,73.40
2017-10-23T10:21:40.350Z,73.10
2017-10-23T10:24:07.933Z,73.70
2017-10-23T10:26:35.494Z,73.10
2017-10-23T10:29:03.154Z,73.70
2017-10-23T10:31:30.745Z,73.60
2017-10-23T10:33:58.300Z,73.20
2017-10-23T10:36:26.313Z,73.00
2017-10-23T10:38:53.902Z,72.50
2017-10-23T10:41:21.461Z,72.60
2017-10-23T10:43:49.039Z,72.90
2017-10-23T10:46:16.620Z,72.30
2017-10-23T10:48:44.932Z,72.10
2017-10-23T10:51:12.509Z,72.00
2017-10-23T10:53:40.093Z,72.60
2017-10-23T10:56:07.655Z,72.50
2017-10-23T10:58:35.233Z,72.20
2017-10-23T11:01:02.799Z,71.80
2017-10-23T11:03:31.133Z,71.80
2017-10-23T11:05:58.742Z,71.80
2017-10-23T11:08:27.071Z,71.40
2017-10-23T11:10:54.618Z,71.30
2017-10-23T11:13:23.958Z,70.60
2017-10-23T11:15:51.503Z,70.50
2017-10-23T11:18:19.129Z,70.00
2017-10-23T11:20:46.738Z,70.40
2017-10-23T11:23:14.319Z,71.70
2017-10-23T11:25:42.722Z,73.30
2017-10-23T11:28:10.300Z,73.30
2017-10-23T11:30:37.902Z,74.00
2017-10-23T11:33:05.504Z,74.10
2017-10-23T11:35:33.061Z,75.50
2017-10-23T11:38:00.638Z,76.50
2017-10-23T11:40:28.251Z,76.60
2017-10-23T11:42:56.574Z,77.90
2017-10-23T11:45:24.131Z,77.40
2017-10-23T11:47:51.709Z,77.90
2017-10-23T11:50:19.252Z,78.00
2017-10-23T11:52:46.894Z,77.90
2017-10-23T11:55:15.218Z,77.90
2017-10-23T11:57:42.770Z,77.90
2017-10-23T12:00:10.362Z,78.10
2017-10-23T12:02:37.923Z,77.20
2017-10-23T12:05:05.549Z,77.50
2017-10-23T12:07:33.099Z,77.70
2017-10-23T12:10:00.642Z,76.90
2017-10-23T12:12:28.242Z,77.40
2017-10-23T12:14:55.826Z,77.10
2017-10-23T12:17:23.399Z,77.60
2017-10-23T12:19:51.787Z,77.70
2017-10-23T12:22:19.331Z,77.70
2017-10-23T12:24:47.669Z,77.30
2017-10-23T12:27:15.295Z,77.30
2017-10-23T12:29:42.874Z,77.40
2017-10-23T12:32:10.419Z,76.60
2017-10-23T12:34:38.007Z,76.50
2017-10-23T12:37:05.583Z,75.80
2017-10-23T12:39:33.193Z,75.60
2017-10-23T12:42:00.806Z,75.60
2017-10-23T12:44:28.364Z,74.90
2017-10-23T12:46:55.962Z,74.60
2017-10-23T12:49:23.533Z,75.10
2017-10-23T12:51:51.112Z,75.10
2017-10-23T12:54:18.683Z,74.80
2017-10-23T12:56:46.251Z,75.10
2017-10-23T12:59:13.792Z,75.10
2017-10-23T13:01:41.373Z,74.80
2017-10-23T13:04:08.955Z,75.00
2017-10-23T13:06:36.519Z,75.10
2017-10-23T13:09:04.142Z,75.40
2017-10-23T13:11:31.705Z,76.20
2017-10-23T13:13:59.259Z,75.70
2017-10-23T13:16:26.824Z,75.40
2017-10-23T13:18:54.397Z,75.10
2017-10-23T13:21:22.738Z,75.70
2017-10-23T13:23:50.317Z,75.80
2017-10-23T13:26:17.883Z,75.90
2017-10-23T13:28:45.450Z,76.00
2017-10-23T13:31:13.006Z,75.70
2017-10-23T13:33:40.590Z,75.20
2017-10-23T13:36:08.131Z,75.50
2017-10-23T13:38:35.696Z,75.40
2017-10-23T13:41:03.287Z,75.40
2017-10-23T13:43:30.829Z,74.90
2017-10-23T13:45:58.395Z,74.90
2017-10-23T13:48:26.753Z,75.00
2017-10-23T13:50:54.305Z,75.00
2017-10-23T13:53:21.858Z,74.30
2017-10-23T13:55:49.450Z,73.80
2017-10-23T13:58:17.017Z,73.60
2017-10-23T14:00:45.404Z,74.20
2017-10-23T14:03:13.754Z,73.90
2017-10-23T14:05:41.321Z,73.90
2017-10-23T14:08:08.888Z,73.90
2017-10-23T14:10:36.465Z,73.60
2017-10-23T14:13:04.030Z,73.70
2017-10-23T14:15:31.605Z,73.80
2017-10-23T14:17:59.209Z,74.10
2017-10-23T14:20:26.806Z,73.80
2017-10-23T14:22:54.451Z,73.90
2017-10-23T14:25:22.822Z,74.40
2017-10-23T14:27:50.456Z,74.30
2017-10-23T14:30:18.034Z,74.30
2017-10-23T14:32:45.669Z,74.60
2017-10-23T14:35:13.286Z,74.50
2017-10-23T14:37:41.632Z,74.20
2017-10-23T14:40:09.265Z,74.10
2017-10-23T14:42:36.869Z,74.30
2017-10-23T14:45:04.452Z,74.00
2017-10-23T14:47:32.828Z,74.20
2017-10-23T14:50:01.192Z,73.80
2017-10-23T14:52:28.781Z,73.80
2017-10-23T14:54:56.373Z,73.40
2017-10-23T14:57:23.977Z,73.20
2017-10-23T14:59:51.605Z,73.10
2017-10-23T15:02:19.176Z,72.90
2017-10-23T15:04:46.756Z,72.60
2017-10-23T15:07:15.104Z,72.60
2017-10-23T15:09:42.684Z,72.50
2017-10-23T15:12:10.283Z,72.20
2017-10-23T15:14:37.843Z,72.60
2017-10-23T15:17:05.407Z,72.60
2017-10-23T15:19:33.006Z,72.10
2017-10-23T15:22:00.569Z,72.40
2017-10-23T15:24:28.118Z,72.40
2017-10-23T15:26:55.731Z,72.50
2017-10-23T15:29:23.330Z,72.10
2017-10-23T15:31:50.916Z,72.10
2017-10-23T15:34:18.475Z,72.60
2017-10-23T15:36:46.058Z,72.70
2017-10-23T15:39:14.413Z,72.20
2017-10-23T15:41:41.954Z,72.20
2017-10-23T15:44:09.532Z,72.20
2017-10-23T15:46:37.084Z,72.50
2017-10-23T15:49:04.646Z,72.50
2017-10-23T15:51:32.250Z,72.10
2017-10-23T15:53:59.800Z,72.40
2017-10-23T15:56:27.371Z,72.60
2017-10-23T15:58:54.968Z,72.60
2017-10-23T16:01:22.539Z,72.30
2017-10-23T16:03:50.106Z,72.60
2017-10-23T16:06:17.697Z,73.00
2017-10-23T16:08:46.007Z,73.50
2017-10-23T16:11:13.611Z,73.50
2017-10-23T16:13:41.167Z,73.70
2017-10-23T16:16:08.721Z,73.50
2017-10-23T16:18:36.349Z,73.80
2017-10-23T16:21:03.934Z,73.70
2017-10-23T16:23:31.495Z,73.60
2017-10-23T16:25:59.108Z,73.80
2017-10-23T16:28:26.657Z,73.90
2017-10-23T16:30:54.989Z,73.70
2017-10-23T16:33:24.473Z,73.70
2017-10-23T16:35:52.051Z,73.80
2017-10-23T16:38:19.774Z,73.70
2017-10-23T16:40:47.351Z,73.70
2017-10-23T16:43:14.927Z,73.50
2017-10-23T16:45:43.164Z,73.30
2017-10-23T16:48:11.609Z,73.20
2017-10-23T16:50:39.591Z,73.20
2017-10-23T16:53:07.753Z,73.30
2017-10-23T16:55:35.400Z,73.10
2017-10-23T16:58:02.950Z,73.10
2017-10-23T17:00:30.521Z,73.20
2017-10-23T17:02:58.088Z,73.00
2017-10-23T17:05:25.627Z,72.90
2017-10-23T17:07:53.187Z,72.80
2017-10-23T17:10:20.759Z,73.20
2017-10-23T17:12:48.327Z,73.00
2017-10-23T17:15:15.895Z,72.90
2017-10-23T17:17:43.445Z,73.00
2017-10-23T17:20:11.053Z,73.00
2017-10-23T17:22:40.091Z,72.80
2017-10-23T17:25:09.728Z,72.80
2017-10-23T17:27:38.082Z,72.30
2017-10-23T17:30:05.635Z,72.30
2017-10-23T17:32:33.195Z,72.50
2017-10-23T17:35:00.790Z,72.50
2017-10-23T17:37:29.119Z,72.30
2017-10-23T17:39:56.673Z,72.20
2017-10-23T17:44:47.436Z,72.20
2017-10-23T17:47:15.818Z,72.50
2017-10-23T17:49:44.148Z,72.40
2017-10-23T17:52:11.704Z,72.40
2017-10-23T17:54:39.322Z,72.00
2017-10-23T17:57:07.643Z,71.90
2017-10-23T17:59:35.229Z,71.90
2017-10-23T18:02:02.842Z,72.20
2017-10-23T18:04:30.402Z,71.90
2017-10-23T18:06:57.959Z,71.70
2017-10-23T18:09:25.554Z,72.00
2017-10-23T18:11:53.117Z,71.60
2017-10-23T18:14:20.662Z,71.90
2017-10-23T18:16:48.227Z,72.00
2017-10-23T18:19:15.787Z,71.90
2017-10-23T18:21:43.382Z,72.00
2017-10-23T18:24:10.975Z,71.70
2017-10-23T18:26:38.525Z,71.80
2017-10-23T18:29:06.845Z,71.90
2017-10-23T18:31:34.450Z,71.90
2017-10-23T18:34:02.765Z,71.60
2017-10-23T18:36:30.312Z,71.60
2017-10-23T18:38:57.896Z,71.80
2017-10-23T18:41:25.456Z,71.60
2017-10-23T18:43:52.992Z,71.70
2017-10-23T18:46:20.583Z,71.70
2017-10-23T18:48:48.141Z,71.70
2017-10-23T18:51:15.680Z,71.70
2017-10-23T18:53:43.274Z,71.70
2017-10-23T18:56:10.812Z,71.70
2017-10-23T18:58:38.359Z,71.70
2017-10-23T19:01:06.020Z,72.00
2017-10-23T19:03:33.566Z,71.90
2017-10-23T19:06:01.766Z,72.20
2017-10-23T19:08:29.365Z,72.00
2017-10-23T19:10:56.921Z,72.10
2017-10-23T19:13:24.501Z,72.50
2017-10-23T19:15:53.188Z,72.30
2017-10-23T19:18:21.542Z,72.50
2017-10-23T19:20:49.151Z,72.40
2017-10-23T19:23:17.058Z,72.30
2017-10-23T19:25:44.600Z,72.20
2017-10-23T19:28:12.193Z,72.40
2017-10-23T19:30:39.745Z,72.50
2017-10-23T19:33:07.641Z,72.40
2017-10-23T19:35:35.980Z,72.40
2017-10-23T19:38:03.550Z,72.20
2017-10-23T19:40:31.287Z,72.40
2017-10-23T19:42:59.307Z,72.20
2017-10-23T19:45:26.937Z,71.80
2017-10-23T19:47:54.523Z,72.00
2017-10-23T19:50:22.111Z,71.80
2017-10-23T19:52:49.696Z,71.90
2017-10-23T19:55:17.265Z,71.70
2017-10-23T19:57:44.849Z,71.70
2017-10-23T20:00:12.400Z,71.60
2017-10-23T20:02:39.999Z,71.50
2017-10-23T20:05:08.302Z,71.50
2017-10-23T20:07:35.844Z,71.50
2017-10-23T20:10:03.467Z,71.50
2017-10-23T20:12:31.008Z,71.30
2017-10-23T20:14:59.314Z,71.60
2017-10-23T20:17:27.660Z,71.50
2017-10-23T20:19:55.258Z,71.50
2017-10-23T20:22:23.612Z,71.30
2017-10-23T20:24:51.194Z,71.30
2017-10-23T20:27:19.544Z,71.70
2017-10-23T20:29:47.083Z,71.70
2017-10-23T20:32:14.656Z,71.70
2017-10-23T20:34:42.205Z,71.60
2017-10-23T20:37:09.739Z,71.40
2017-10-23T20:39:37.325Z,71.50
2017-10-23T20:42:04.882Z,71.70
2017-10-23T20:44:32.484Z,71.60
2017-10-23T20:47:00.037Z,71.70
2017-10-23T20:52:01.570Z,72.20
2017-10-23T20:54:29.151Z,72.50
2017-10-23T20:56:56.688Z,72.60
2017-10-23T20:59:24.291Z,72.70
2017-10-23T21:01:51.852Z,72.80
2017-10-23T21:04:19.409Z,72.90
2017-10-23T21:06:47.059Z,73.00
2017-10-23T21:09:14.693Z,72.90
2017-10-23T21:11:42.296Z,72.80
2017-10-23T21:14:10.608Z,73.00
2017-10-23T21:16:38.161Z,73.00
2017-10-23T21:19:05.735Z,72.90
2017-10-23T21:21:33.293Z,73.00
2017-10-23T21:24:00.842Z,73.00
2017-10-23T21:26:28.415Z,72.80
2017-10-23T21:28:55.977Z,72.90
2017-10-23T21:31:23.529Z,72.80
2017-10-23T21:33:51.113Z,73.00
2017-10-23T21:36:18.672Z,73.00
2017-10-23T21:38:47.009Z,73.00
2017-10-23T21:41:14.568Z,73.00
2017-10-23T21:43:42.888Z,73.00
2017-10-23T21:46:10.555Z,73.00
2017-10-23T21:48:38.098Z,72.90
2017-10-23T21:51:05.646Z,72.90
2017-10-23T21:53:33.233Z,72.90
2017-10-23T21:56:00.782Z,72.80
2017-10-23T21:58:28.330Z,72.70
2017-10-23T22:00:55.922Z,72.80
2017-10-23T22:03:23.473Z,72.70
2017-10-23T22:05:51.021Z,72.60
2017-10-23T22:08:18.606Z,72.60
2017-10-23T22:10:46.143Z,72.70
2017-10-23T22:13:13.709Z,72.80
2017-10-23T22:15:41.289Z,72.80
2017-10-23T22:18:08.827Z,72.70
2017-10-23T22:20:36.402Z,72.80
2017-10-23T22:23:03.979Z,72.90
2017-10-23T22:25:32.286Z,73.20
2017-10-23T22:27:59.877Z,73.00
2017-10-23T22:30:27.434Z,72.90
2017-10-23T22:32:54.998Z,72.90
2017-10-23T22:35:22.581Z,73.00
2017-10-23T22:37:50.129Z,73.00
2017-10-23T22:40:17.693Z,72.90
2017-10-23T22:42:45.282Z,73.10
2017-10-23T22:45:13.618Z,73.30
2017-10-23T22:47:41.203Z,73.10
2017-10-23T22:50:08.781Z,73.30
2017-10-23T22:52:37.104Z,73.40
2017-10-23T22:55:04.701Z,73.40
2017-10-23T22:57:32.267Z,73.40
2017-10-23T22:59:59.815Z,73.50
2017-10-23T23:02:27.431Z,73.50
2017-10-23T23:04:54.981Z,73.40
2017-10-23T23:07:22.524Z,73.50
2017-10-23T23:09:50.909Z,73.50
2017-10-23T23:12:18.493Z,73.50
2017-10-23T23:14:46.077Z,73.60
2017-10-23T23:17:13.658Z,73.60
2017-10-23T23:19:41.197Z,73.60
2017-10-23T23:22:08.788Z,73.70
2017-10-23T23:24:37.142Z,73.70
2017-10-23T23:27:04.691Z,73.70
2017-10-23T23:29:32.309Z,73.60
2017-10-23T23:31:59.855Z,73.40
2017-10-23T23:34:28.152Z,73.40
2017-10-23T23:36:55.733Z,73.30
2017-10-23T23:39:23.280Z,73.30
2017-10-23T23:41:50.866Z,73.20
2017-10-23T23:44:18.431Z,73.00
2017-10-23T23:46:46.749Z,73.20
2017-10-23T23:49:15.083Z,72.90
2017-10-23T23:51:42.621Z,72.90
2017-10-23T23:54:10.193Z,72.90
2017-10-23T23:56:37.753Z,73.00
2017-10-23T23:59:05.353Z,72.80
